Date,TemperatureHighF,TemperatureAvgF,TemperatureLowF,DewpointHighF,DewpointAvgF,DewpointLowF,HumidityHigh,HumidityAvg,HumidityLow,PressureMaxIn,PressureMinIn,WindSpeedMaxMPH,WindSpeedAvgMPH,GustSpeedMaxMPH,PrecipitationSumIn
2014-1-1,48.5,38.8,29.0,34.8,29.0,21.3,84,68,53,19.22,19.22,13,1,13,0.00
2014-1-2,41.7,36.5,32.7,36.0,32.9,29.4,92,87,78,16.88,16.88,12,1,12,0.07
2014-1-3,33.7,22.8,16.8,31.4,13.4,6.7,91,68,47,19.09,19.09,21,6,25,0.00
2014-1-4,35.2,25.7,14.8,22.2,15.9,9.5,84,67,51,19.23,19.09,17,2,17,0.01
2014-1-5,41.9,38.8,32.9,39.3,33.7,20.8,93,82,61,30.88,19.23,14,1,14,0.10
2014-1-6,48.8,36.1,11.8,47.2,27.3,-2.8,95,72,47,31.15,17.44,31,6,31,0.19
2014-1-7,21.5,12.7,6.9,6.4,-2.3,-7.1,66,51,40,30.92,16.93,24,4,24,0.00
2014-1-8,31.9,23.0,10.6,22.2,10.2,2.2,76,58,41,30.90,16.94,10,1,10,0.00
2014-1-9,41.6,34.8,29.2,28.3,24.8,19.2,75,67,56,30.89,16.93,6,1,9,0.00
2014-1-10,42.2,38.6,35.0,39.8,35.0,27.1,93,87,71,16.93,16.93,3,0,4,0.54
2014-1-11,54.4,47.0,39.1,52.1,45.0,37.0,95,93,84,16.93,16.93,15,2,15,0.76
2014-1-12,54.3,47.3,36.8,48.4,36.1,32.3,86,65,51,16.93,16.93,21,3,21,0.00
2014-1-13,60.6,46.9,32.3,43.3,37.3,29.5,91,71,52,30.87,16.93,16,2,17,0.00
2014-1-14,53.2,48.1,39.8,48.4,44.6,37.6,93,88,64,30.90,16.92,11,2,13,0.25
2014-1-15,49.7,42.1,38.0,45.3,38.0,32.2,95,86,63,32.14,16.93,22,3,22,0.01
2014-1-16,41.4,37.1,32.1,33.1,27.3,22.0,85,68,49,30.90,18.57,16,3,16,0.00
2014-1-17,49.4,40.1,32.0,35.3,31.1,26.6,84,71,53,30.88,16.93,11,1,11,0.00
2014-1-18,39.8,31.0,24.4,33.8,19.9,13.4,85,64,49,30.91,16.93,18,6,24,0.00
2014-1-19,50.6,37.3,23.4,32.1,24.0,13.5,78,59,47,30.89,16.93,19,2,19,0.00
2014-1-20,57.9,46.1,39.3,35.4,30.9,27.5,70,56,41,29.37,29.37,18,3,18,0.00
2014-1-21,39.4,30.3,16.6,32.0,24.9,8.8,89,81,66,29.37,16.93,27,4,27,0.00
2014-1-22,19.7,15.1,9.2,8.5,3.4,0.5,69,59,50,16.18,16.18,23,6,23,0.00
2014-1-23,28.5,19.0,10.8,15.2,7.1,3.0,76,59,48,31.46,16.18,25,4,25,0.01
2014-1-24,24.9,19.0,11.3,7.3,2.9,-0.1,64,50,39,31.00,16.21,20,4,20,0.00
2014-1-25,34.4,28.7,24.4,24.7,11.4,3.0,70,49,39,30.97,16.94,21,4,21,0.00
2014-1-26,36.5,29.1,19.7,20.1,13.9,8.2,73,53,42,32.03,30.96,22,2,22,0.00
2014-1-27,55.1,36.2,23.4,38.3,22.0,7.3,69,56,42,32.03,30.94,27,6,27,0.00
2014-1-28,23.3,17.3,13.1,10.2,2.1,-2.4,78,51,42,31.00,16.21,26,5,26,0.00
2014-1-29,27.7,19.5,13.5,11.4,6.3,0.1,82,57,39,31.59,16.22,18,3,18,0.00
2014-1-30,34.4,25.4,15.9,16.1,9.7,3.0,66,52,38,31.01,16.22,13,1,13,0.00
2014-1-31,52.4,36.4,24.6,25.4,20.2,13.7,69,53,33,31.00,16.95,9,1,9,0.00
2014-2-1,52.9,40.5,28.3,34.9,26.9,21.2,77,60,39,16.97,16.97,14,1,14,0.00
2014-2-2,63.0,49.7,34.4,41.3,35.7,28.0,80,60,44,31.44,16.21,7,1,8,0.00
2014-2-3,51.9,40.6,35.3,42.4,36.8,30.0,92,86,64,16.98,16.98,20,3,20,1.41
2014-2-4,40.7,35.8,31.1,31.3,27.5,24.3,89,72,60,32.01,16.97,11,1,11,0.03
2014-2-5,44.0,36.4,33.4,37.8,32.3,23.0,92,86,63,31.46,16.72,34,3,34,0.34
2014-2-6,37.7,33.3,29.3,23.3,21.1,18.8,69,61,50,31.00,17.53,24,5,24,0.00
2014-2-7,44.2,36.3,28.1,28.3,24.0,20.3,76,61,51,31.48,16.20,12,1,12,0.00
2014-2-8,36.6,33.1,27.6,24.2,20.5,16.4,76,60,48,16.95,16.20,7,1,7,0.00
2014-2-9,35.9,32.7,25.7,30.5,25.2,19.8,85,74,64,16.22,16.22,11,1,11,0.00
2014-2-10,34.8,30.9,26.0,28.6,18.6,13.5,79,60,52,30.96,16.23,20,4,20,0.00
2014-2-11,33.7,27.6,21.2,16.6,13.5,11.6,68,55,45,30.98,16.95,18,2,18,0.00
2014-2-12,31.4,26.6,21.5,24.7,15.6,9.5,86,63,48,32.29,16.23,12,2,12,0.00
2014-2-13,38.7,33.8,27.2,35.9,31.1,23.5,92,90,81,31.46,16.20,26,4,26,0.93
2014-2-14,54.1,42.4,33.2,34.2,30.6,24.4,80,64,44,31.03,16.19,28,3,28,0.09
2014-2-15,43.0,36.9,31.0,33.9,29.6,18.5,88,75,59,31.44,16.20,29,5,29,0.12
2014-2-16,40.7,33.5,28.4,25.8,20.2,15.0,73,58,48,16.95,16.95,20,3,20,0.00
2014-2-17,38.6,31.8,25.1,22.2,17.4,14.4,69,56,41,30.98,16.96,12,3,15,0.00
2014-2-18,58.5,41.7,29.4,35.9,30.7,19.9,88,68,38,32.28,16.99,15,2,15,0.03
2014-2-19,63.9,49.6,35.8,52.2,38.0,28.5,92,65,41,31.44,16.97,20,3,20,0.11
2014-2-20,55.9,47.3,36.0,39.6,33.8,29.5,83,61,39,31.00,16.21,17,1,17,0.00
2014-2-21,69.0,50.2,39.9,61.5,44.8,36.8,91,82,69,30.95,16.94,23,1,23,0.05
2014-2-22,64.0,45.6,33.8,37.6,32.9,30.0,91,67,31,31.50,16.96,21,1,21,0.01
2014-2-23,64.7,52.9,45.6,39.4,35.5,32.6,74,52,37,32.02,16.97,22,3,22,0.00
2014-2-24,47.1,41.2,32.8,37.7,22.8,15.7,78,49,29,32.12,16.21,30,6,30,0.00
2014-2-25,38.2,33.7,29.7,30.7,24.1,17.6,86,68,49,31.51,16.21,7,1,12,0.10
2014-2-26,37.2,32.5,26.5,29.8,21.1,12.4,89,64,44,31.02,16.21,20,2,20,0.05
2014-2-27,41.8,30.7,20.7,21.7,14.5,5.9,68,52,36,31.54,16.96,32,6,32,0.00
2014-2-28,32.2,22.0,15.9,9.2,2.7,-1.5,55,43,30,31.52,31.52,25,4,25,0.00
2014-3-1,47.1,30.4,19.0,27.4,17.2,8.1,75,59,42,31.52,16.20,13,1,13,0.00
2014-3-2,56.8,43.7,34.9,41.0,34.4,26.6,92,71,51,31.51,20.06,17,1,17,0.22
2014-3-3,39.5,24.5,12.8,36.4,19.1,6.7,89,80,62,31.51,29.21,20,5,20,0.18
2014-3-4,34.6,24.6,13.2,17.5,10.9,6.2,77,56,37,32.22,29.39,10,1,10,0.08
2014-3-5,48.3,33.0,21.6,23.9,19.3,15.6,81,59,35,32.35,20.09,17,1,17,0.05
2014-3-6,37.1,32.7,27.8,26.0,20.8,15.4,74,62,51,31.53,30.16,12,3,15,0.00
2014-3-7,47.2,38.9,32.5,35.1,30.3,25.0,77,71,61,31.55,30.16,15,3,15,0.00
2014-3-8,65.9,49.0,31.1,44.5,36.4,26.0,84,63,44,31.55,16.18,13,2,13,0.00
2014-3-9,54.2,48.0,42.5,40.4,31.4,24.5,70,54,36,32.47,16.17,22,5,22,0.00
2014-3-10,60.1,48.4,40.7,38.7,33.1,24.9,69,56,42,32.47,31.47,20,2,20,0.00
2014-3-11,72.3,56.7,44.7,47.9,40.7,33.9,72,56,41,32.28,16.09,7,0,7,0.00
2014-3-12,67.5,52.6,35.6,58.7,43.4,23.1,86,71,58,31.51,30.72,20,4,38,0.12
2014-3-13,35.4,30.3,22.5,23.3,12.6,4.7,62,48,37,31.46,16.69,30,9,36,0.00
2014-3-14,58.9,43.2,26.3,32.3,23.3,12.3,66,47,33,21.41,16.69,24,4,24,0.00
2014-3-15,67.2,57.4,49.8,42.2,33.5,28.6,51,41,29,31.51,16.20,24,4,24,0.00
2014-3-16,51.2,42.9,31.0,32.8,29.9,25.6,90,61,44,32.25,16.20,15,2,15,0.00
2014-3-17,34.2,31.0,27.5,29.2,26.6,24.4,90,84,76,31.50,23.19,10,2,13,0.05
2014-3-18,44.4,38.9,32.7,33.6,28.5,23.3,77,66,58,32.25,20.06,14,2,14,0.30
2014-3-19,43.9,40.9,38.8,41.5,36.6,30.5,94,85,68,31.53,30.18,9,1,9,0.22
2014-3-20,60.4,51.0,42.1,45.9,36.7,30.0,94,63,34,16.71,16.21,25,4,25,0.01
2014-3-21,58.5,49.2,42.2,42.5,36.6,29.5,80,62,49,32.05,30.94,11,1,13,0.00
2014-3-22,71.7,55.4,41.6,44.7,39.3,35.4,87,59,28,32.05,21.35,15,2,15,0.00
2014-3-23,54.5,45.2,35.7,36.1,29.3,16.4,63,54,42,31.39,28.65,22,5,22,0.00
2014-3-24,41.5,33.7,25.7,21.1,15.6,12.2,59,47,36,30.74,17.50,23,4,23,0.00
2014-3-25,38.2,34.6,29.3,35.1,29.7,18.4,91,83,56,32.32,30.19,12,1,12,0.28
2014-3-26,37.6,33.1,29.4,30.5,20.5,14.8,89,61,41,32.32,29.99,33,7,33,0.00
2014-3-27,52.6,39.3,24.7,31.5,23.4,16.8,76,54,36,31.32,29.54,16,3,17,0.00
2014-3-28,67.4,56.5,44.6,55.8,47.0,30.8,89,71,56,31.48,21.94,24,4,24,0.04
2014-3-29,63.9,59.5,53.0,61.0,56.6,51.0,95,90,75,31.19,29.45,17,1,17,0.89
2014-3-30,53.1,43.9,35.8,51.1,40.7,33.4,94,89,71,16.76,16.76,30,8,30,1.39
2014-3-31,66.5,53.8,42.8,40.0,36.7,32.6,72,54,36,16.76,16.21,30,8,30,0.00
2014-4-1,68.2,55.6,43.6,44.7,39.1,32.2,72,54,40,31.50,16.18,11,1,11,0.00
2014-4-2,67.2,55.9,45.0,50.0,45.7,40.8,86,70,54,32.24,16.20,9,1,9,0.00
2014-4-3,67.8,60.4,54.2,53.8,49.4,44.5,85,68,51,31.52,16.96,16,1,16,0.00
2014-4-4,63.2,55.6,50.6,53.9,47.8,43.1,90,75,62,31.01,16.24,14,3,15,0.05
2014-4-5,58.9,53.2,46.7,49.7,39.9,32.3,92,63,44,32.29,30.18,25,5,25,0.00
2014-4-6,61.4,50.3,37.2,34.2,30.7,26.8,75,49,30,31.51,16.99,10,2,13,0.00
2014-4-7,53.7,48.5,42.5,51.7,42.9,32.8,94,82,53,32.29,16.99,17,1,17,0.35
2014-4-8,66.3,57.3,50.2,55.9,48.1,40.8,95,74,49,31.56,16.21,23,3,23,0.02
2014-4-9,67.0,56.5,45.0,43.2,39.4,34.2,80,55,35,31.56,30.22,19,3,19,0.00
2014-4-10,71.7,58.1,43.1,44.6,38.9,33.5,72,50,36,32.29,16.18,22,3,22,0.00
2014-4-11,81.7,68.8,61.8,56.3,48.6,42.8,76,50,34,31.48,16.71,23,3,23,0.00
2014-4-12,77.2,67.0,56.1,55.7,48.9,40.5,88,56,31,32.31,16.95,14,2,14,0.00
2014-4-13,84.0,68.1,53.2,61.6,56.2,49.7,90,68,46,30.95,16.21,21,3,21,0.00
2014-4-14,77.4,71.7,65.1,62.8,59.0,56.7,83,65,53,32.22,16.19,33,6,33,0.00
2014-4-15,70.8,57.1,36.4,66.6,53.2,28.7,94,87,67,31.45,16.17,27,5,27,2.03
2014-4-16,51.0,41.3,33.6,28.8,23.8,19.3,66,50,35,31.56,16.20,30,6,30,0.00
2014-4-17,56.1,44.7,34.3,38.6,33.3,27.3,83,65,50,31.56,30.97,14,2,14,0.00
2014-4-18,56.6,46.9,38.8,40.8,36.8,32.6,81,69,53,30.97,30.27,12,1,12,0.00
2014-4-19,70.3,57.1,43.6,45.7,40.7,33.3,87,58,32,29.46,16.97,19,2,19,0.00
2014-4-20,64.7,55.3,47.0,43.4,40.4,35.9,75,58,44,31.02,16.21,17,2,17,0.00
2014-4-21,71.1,54.5,38.7,44.2,38.0,33.1,82,56,34,32.06,16.94,10,1,10,0.00
2014-4-22,75.3,62.0,52.2,61.6,52.9,42.8,88,73,50,31.27,16.18,15,1,15,0.06
2014-4-23,61.7,55.2,49.2,53.3,40.7,35.8,78,58,51,31.84,29.68,28,7,28,0.01
2014-4-24,65.7,55.9,45.0,36.0,31.7,28.0,57,41,29,31.86,29.68,18,3,18,0.00
2014-4-25,71.1,56.3,45.0,53.0,44.8,35.7,92,67,44,16.93,16.93,21,2,21,0.39
2014-4-26,77.0,63.7,52.5,55.1,49.8,42.9,93,62,44,16.74,16.74,26,4,26,0.01
2014-4-27,67.8,59.1,50.2,50.7,40.7,36.9,66,51,36,30.17,16.20,21,3,21,0.00
2014-4-28,62.6,53.9,48.1,51.1,44.3,40.5,93,71,55,30.96,16.95,12,1,12,0.09
2014-4-29,50.7,49.5,48.1,49.0,47.5,44.3,94,93,85,16.12,16.12,17,3,17,1.05
2014-4-30,66.8,57.5,50.4,65.6,56.2,48.7,96,95,94,31.01,16.95,16,2,16,1.83
2014-5-1,78.5,68.9,59.9,65.3,59.4,47.5,95,74,52,30.24,16.73,19,2,19,0.12
2014-5-2,71.0,63.0,53.9,48.1,45.6,42.9,71,54,41,16.95,16.94,23,2,23,0.00
2014-5-3,74.7,64.5,53.6,51.5,47.6,44.2,78,56,39,16.96,16.96,16,1,16,0.00
2014-5-4,80.0,65.1,49.9,53.0,47.1,42.6,78,54,36,20.01,16.96,25,3,25,0.00
2014-5-5,65.3,57.3,49.2,50.0,41.7,35.5,92,58,41,31.01,16.96,20,3,20,0.21
2014-5-6,74.3,61.0,51.4,54.8,50.5,47.1,93,71,42,31.06,16.21,14,1,14,0.00
2014-5-7,65.2,59.2,52.3,57.2,50.9,44.2,89,75,53,31.31,16.30,14,2,14,0.09
2014-5-8,89.3,71.8,57.4,69.0,61.4,52.6,91,72,42,31.31,16.31,13,1,13,0.00
2014-5-9,78.7,68.9,61.7,67.6,63.1,58.9,91,82,66,31.87,16.19,11,2,11,0.00
2014-5-10,78.1,71.6,67.3,67.3,64.9,63.1,90,80,67,31.01,16.25,13,2,21,0.05
2014-5-11,82.3,71.2,58.9,63.4,57.1,52.6,93,64,39,30.50,16.20,15,2,15,0.00
2014-5-12,88.3,73.2,61.1,70.7,64.8,55.9,94,77,51,16.29,16.29,22,1,22,0.11
2014-5-13,92.2,76.9,66.3,73.8,68.4,62.5,96,77,52,16.88,16.88,14,1,14,0.01
2014-5-14,69.0,63.6,60.1,64.6,60.5,57.6,95,90,80,17.52,16.74,16,2,16,0.00
2014-5-15,81.6,71.8,66.2,71.5,67.8,64.4,95,88,70,31.31,16.71,17,2,17,0.64
2014-5-16,71.9,65.5,55.8,68.4,58.3,50.9,95,79,59,16.73,16.73,16,3,24,1.65
2014-5-17,68.4,60.2,49.2,50.8,46.9,44.2,87,63,44,31.02,16.71,17,2,17,0.00
2014-5-18,68.0,59.9,50.4,49.4,44.0,40.5,75,57,39,17.65,17.65,17,3,17,0.00
2014-5-19,73.4,61.2,46.3,47.0,43.9,40.4,83,56,36,16.94,16.94,15,2,15,0.00
2014-5-20,79.1,67.2,53.7,56.0,50.1,44.2,76,56,36,31.30,16.92,12,1,12,0.00
2014-5-21,79.8,69.5,60.0,67.3,61.4,55.4,93,76,59,16.19,16.19,9,1,9,0.03
2014-5-22,87.8,75.8,64.8,69.1,64.6,56.3,94,71,48,16.18,16.18,21,3,21,0.00
2014-5-23,79.5,69.8,59.0,57.5,53.5,48.2,75,57,43,32.22,16.94,21,4,21,0.00
2014-5-24,76.4,66.6,56.8,57.7,53.2,48.3,75,63,50,30.70,16.94,13,3,17,0.00
2014-5-25,82.4,70.4,55.5,58.9,55.2,51.7,88,61,40,18.26,16.97,15,1,15,0.00
2014-5-26,86.7,74.5,59.9,65.7,61.9,54.3,91,67,46,31.30,16.18,15,1,15,0.00
2014-5-27,89.5,76.0,66.7,72.2,67.1,62.8,95,76,51,31.50,30.39,28,2,28,0.54
2014-5-28,84.5,77.5,66.2,71.9,69.5,64.4,95,78,66,16.97,16.97,12,1,12,0.01
2014-5-29,84.5,84.5,84.5,71.9,71.9,71.9,66,66,66,16.32,16.32,1,1,1,0.00
2014-5-30,84.5,84.5,84.5,71.9,71.9,71.9,66,66,66,31.30,17.07,1,1,1,0.00
2014-5-31,84.5,84.5,84.5,71.9,71.9,71.9,66,66,66,17.51,17.51,1,1,1,0.00
2014-6-1,84.5,84.5,84.5,71.9,71.9,71.9,66,66,66,16.73,16.73,1,1,1,0.00
2014-6-2,84.5,84.5,84.5,71.9,71.9,71.9,66,66,66,30.98,16.95,1,1,1,0.00
2014-6-3,84.5,84.5,84.5,71.9,71.9,71.9,66,66,66,30.91,16.95,1,1,1,0.00
2014-6-4,84.5,84.5,84.5,71.9,71.9,71.9,66,66,66,16.96,16.96,1,1,1,0.00
2014-11-20,45.6,40.3,36.4,20.2,17.7,13.1,44,40,35,30.15,30.01,16,4,16,0.00
2014-11-21,38.9,33.3,25.9,18.6,13.4,8.5,67,44,31,30.59,30.15,23,3,23,0.00
2014-11-22,49.9,36.9,21.0,24.4,19.6,14.9,84,53,28,30.59,30.28,14,2,14,0.00
2014-11-23,56.4,48.0,37.7,53.8,32.4,22.5,98,57,36,30.28,29.80,11,1,11,0.23
2014-11-24,73.3,65.4,54.8,62.0,57.8,53.6,98,78,51,29.82,29.64,20,4,20,0.13
2014-11-25,66.8,55.7,48.3,60.2,40.6,33.8,82,58,41,30.19,29.80,17,2,17,0.00
2014-11-26,49.6,40.5,34.4,43.2,36.8,32.6,95,87,64,30.19,29.92,9,2,17,1.15
2014-11-27,46.6,39.6,34.7,37.0,32.9,27.4,95,78,50,30.22,30.03,17,2,17,0.00
2014-11-28,40.2,35.4,28.8,27.4,23.6,20.5,80,62,49,30.36,30.21,19,3,19,0.00
2014-11-29,47.4,39.4,29.7,31.8,26.9,22.5,82,62,44,30.37,30.19,12,2,12,0.00
2014-11-30,67.4,52.7,38.1,46.0,38.7,30.1,75,60,44,30.20,30.07,15,2,15,0.00
2014-12-1,72.6,56.9,44.2,58.9,46.8,35.0,90,70,50,30.50,30.16,21,2,21,0.48
2014-12-2,44.2,38.1,34.8,37.2,35.0,32.5,96,89,66,30.61,30.33,11,1,11,0.58
2014-12-3,52.9,45.2,37.8,49.1,40.2,27.4,96,84,49,30.35,30.07,20,3,20,0.04
2014-12-4,46.1,41.3,33.4,35.6,29.2,26.9,86,63,49,30.52,30.34,11,1,11,0.01
2014-12-5,42.2,40.4,39.4,39.7,35.3,31.8,92,82,72,30.57,30.36,5,0,5,0.03
2014-12-6,50.6,45.7,41.7,49.4,43.0,38.7,96,90,83,30.36,30.06,22,2,22,0.59
2014-12-7,50.1,41.6,35.8,38.8,26.5,18.7,87,56,30,30.59,30.28,23,5,23,0.00
2014-12-8,37.9,35.3,32.6,31.9,24.2,16.7,93,64,49,30.62,30.25,12,1,12,0.00
2014-12-9,44.8,38.9,32.5,39.1,35.6,30.2,94,88,73,30.26,29.89,19,5,19,0.35
2014-12-10,48.4,43.4,38.0,37.0,32.4,25.8,78,65,55,29.91,29.85,22,7,30,0.00
2014-12-11,42.9,39.7,35.2,26.0,20.4,10.8,63,47,28,30.06,29.88,22,4,22,0.00
2014-12-12,45.4,40.5,33.7,28.6,23.9,12.7,70,52,31,30.16,30.04,15,3,18,0.00
2014-12-13,49.3,39.0,28.3,32.9,28.5,23.6,85,67,51,30.17,30.03,10,2,17,0.00
2014-12-14,53.9,44.9,32.6,40.0,35.3,27.7,87,70,58,30.07,29.98,19,2,19,0.00
2014-12-15,60.4,48.3,39.6,43.0,39.9,36.4,91,74,52,30.14,30.06,11,1,11,0.00
2014-12-16,47.5,42.6,36.4,45.8,40.9,34.8,97,94,88,30.09,29.89,7,1,7,0.44
2014-12-17,55.4,46.3,39.2,43.7,35.8,26.0,94,69,48,30.10,29.93,21,3,21,0.00
2014-12-18,40.9,38.1,35.2,27.5,24.6,21.6,66,58,51,30.22,30.10,19,3,19,0.00
2014-12-19,41.3,37.1,33.1,27.2,25.7,23.8,70,63,54,30.29,30.14,12,3,19,0.00
2014-12-20,39.2,34.3,28.3,26.0,23.9,21.0,78,66,55,30.37,30.26,9,0,9,0.00
2014-12-21,45.1,37.0,30.1,28.4,26.5,24.3,85,66,50,30.40,30.30,10,1,10,0.00
2014-12-22,37.3,34.5,29.6,35.8,30.6,25.2,95,85,71,30.37,30.10,9,1,9,0.27
2014-12-23,48.2,42.8,36.8,45.2,41.0,35.0,98,93,87,30.11,30.05,6,1,9,0.07
2014-12-24,55.1,48.8,44.3,54.5,48.1,43.6,99,97,95,30.06,29.59,11,1,11,0.80
2014-12-25,60.8,51.5,44.9,58.5,39.2,31.5,99,65,41,30.27,29.59,26,4,26,0.10
2014-12-26,53.8,43.1,32.6,35.5,32.6,29.0,89,68,47,30.39,30.24,12,1,12,0.00
2014-12-27,59.1,45.2,32.9,39.9,34.0,28.1,94,69,31,30.33,30.09,4,0,7,0.00
2014-12-28,59.7,51.8,45.5,50.5,43.2,38.2,92,73,52,30.15,29.95,9,1,9,0.09
2014-12-29,45.4,43.0,41.5,41.6,32.6,26.1,89,67,54,30.30,30.14,8,1,8,0.07
2014-12-30,42.7,37.6,28.9,26.6,20.9,14.3,66,51,33,30.47,30.29,14,2,14,0.00
2014-12-31,39.3,31.9,25.6,20.7,15.5,9.3,73,52,29,30.49,30.28,12,2,17,0.00
2015-1-1,45.6,35.3,23.0,25.8,18.7,12.9,75,52,33,30.28,30.09,18,2,18,0.00
2015-1-2,47.9,39.0,32.9,26.6,24.9,22.8,74,58,38,30.47,30.12,7,0,7,0.00